Ana Sayfa
METAR-TAF:

METAR-TAF

Havaalanları :

Kişinev Uluslararası Havalimanı

Kişinev, Moldova

Enlem: 46-55-40N, Boylam: 028-55-51E, yükseklik: 122 m

Güncel hava durumu gözlemi

Rapor saat 09:00 UTC de 10 dakika önce yapıldı.
Rüzgar kuzeydan 10 kt
Sıcaklık 14°C
Nem 41%
Basınç 1013 hPa
Görüş mesafesi 10 km veya daha fazla
1500 m altında bulut yok ve kümülonimbus yok

METAR: LUKK 280900Z 01010KT CAVOK 14/01 Q1013 R08/CLRD// NOSIG

Saat: 11:10 (09:10 UTC)

Tahmin

Rapor saat 05:20 UTC de 3 saat ve 50 dakika önce yapıldı.
Ayın 28'si saat 06 UTC'den ayın 29'si saat 06 UTC'ye kadar geçerli Tahmin
Rüzgar kuzey/kuzeydoğudan 8 kt
Görüş mesafesi 10 km veya daha fazla
1500 m altında bulut yok ve kümülonimbus yok
Dönüşüyor
ayın 28'si saat 19 UTC'den ayın 28'si saat 21 UTC'ye kadar
Rüzgar kuzeybatıdan 6 kt

TAF: LUKK 280520Z 2806/2906 02008KT CAVOK BECMG 2819/2821 32006KT

4.000'den fazla havaalanı için hava durumu gözlemleri ve tahminleri (METAR ve TAF raporları).

Kullanılabilir istasyonlar harita üzerinde sarı ve kırmızı noktalarla gösterilir.

İstasyonun adını görmek için fareyi noktanın üzerinde gezdirin.

Sonrasında hava gözlem ve tahminlerini görmek için tıklayın.

Haritayı değiştirmek için: yaklaştırmak için siyah artı işaretli yeşil düğmeye ve uzaklaştırmak için de eksi işaretli düğmeye hızla tıklayın; bitişik haritalar için yeşil okları kullanın.


METAR-TAF: